Time;durP1;ratioP1;P1;durP2;ratioP2;P2;SDS_P1;SDS_P2;PMS_P1;PMS_P2;Temp;Humidity;BMP_temperature;BMP_pressure;BME280_temperature;BME280_humidity;BME280_pressure;Samples;Min_cycle;Max_cycle;Signal;HPM_P1;HPM_P2
2022/09/10 00:02:16;;;;;;;0.60;0.60;;;;;;;;;;5075131;28;20284;-82
2022/09/10 00:04:44;;;;;;;0.43;0.43;;;;;;;;;;5075548;28;20211;-82
2022/09/10 00:07:12;;;;;;;1.00;0.70;;;;;;;;;;5074900;28;20197;-82
2022/09/10 00:09:39;;;;;;;0.70;0.70;;;;;;;;;;5074032;28;20704;-82
2022/09/10 00:12:07;;;;;;;0.50;0.50;;;;;;;;;;5074719;28;20303;-82
2022/09/10 00:14:35;;;;;;;0.60;0.60;;;;;;;;;;5075373;28;20205;-82
2022/09/10 00:17:04;;;;;;;0.68;0.68;;;;;;;;;;5075076;28;20207;-82
2022/09/10 00:19:31;;;;;;;1.23;0.90;;;;;;;;;;5075448;28;20221;-81
2022/09/10 00:21:59;;;;;;;1.25;0.90;;;;;;;;;;5075469;28;20227;-81
2022/09/10 00:24:27;;;;;;;1.30;1.20;;;;;;;;;;5074843;28;20208;-81
2022/09/10 00:26:55;;;;;;;0.80;0.80;;;;;;;;;;5075357;28;20228;-83
2022/09/10 00:29:22;;;;;;;2.20;0.80;;;;;;;;;;5075176;28;20236;-82
2022/09/10 00:31:50;;;;;;;1.27;1.00;;;;;;;;;;5075027;28;20243;-81
2022/09/10 00:34:19;;;;;;;1.60;1.00;;;;;;;;;;5075036;28;20687;-82
2022/09/10 00:36:46;;;;;;;0.93;0.93;;;;;;;;;;5074859;28;20207;-81
2022/09/10 00:39:16;;;;;;;1.60;1.00;;;;;;;;;;5074280;28;20307;-81
2022/09/10 00:41:45;;;;;;;0.70;0.70;;;;;;;;;;5074907;28;20211;-81
2022/09/10 00:44:58;;;;;;;0.50;0.50;;;;;;;;;;5075133;28;20197;-81
2022/09/10 00:47:29;;;;;;;1.13;0.88;;;;;;;;;;5074620;28;20200;-82
2022/09/10 00:50:05;;;;;;;0.80;0.80;;;;;;;;;;5074517;28;20304;-81
2022/09/10 00:52:33;;;;;;;1.85;0.90;;;;;;;;;;5075380;28;20232;-81
2022/09/10 00:55:00;;;;;;;1.70;0.80;;;;;;;;;;5074870;28;20200;-81
2022/09/10 00:57:29;;;;;;;0.85;0.80;;;;;;;;;;5073873;28;20288;-81
2022/09/10 01:00:04;;;;;;;1.08;0.90;;;;;;;;;;5074343;28;20225;-81
2022/09/10 01:02:31;;;;;;;0.60;0.60;;;;;;;;;;5074729;28;20250;-81
2022/09/10 01:05:01;;;;;;;1.20;0.68;;;;;;;;;;5074309;28;20284;-81
2022/09/10 01:07:30;;;;;;;1.00;1.00;;;;;;;;;;5074420;28;20207;-82
2022/09/10 01:09:58;;;;;;;0.70;0.70;;;;;;;;;;5074709;28;20219;-82
2022/09/10 01:12:54;;;;;;;0.70;0.70;;;;;;;;;;5074422;28;20215;-81
2022/09/10 01:15:28;;;;;;;0.73;0.73;;;;;;;;;;5071394;28;20201;-81
2022/09/10 01:18:07;;;;;;;1.13;1.00;;;;;;;;;;5074494;28;20203;-82
2022/09/10 01:21:02;;;;;;;1.08;0.60;;;;;;;;;;5074242;28;20224;-81
2022/09/10 01:24:17;;;;;;;1.45;1.08;;;;;;;;;;5074146;28;20208;-82
2022/09/10 01:27:17;;;;;;;0.88;0.80;;;;;;;;;;5074418;28;20205;-81
2022/09/10 01:29:52;;;;;;;0.80;0.80;;;;;;;;;;5074861;28;20308;-81
2022/09/10 01:32:27;;;;;;;0.63;0.63;;;;;;;;;;5074603;28;20206;-82
2022/09/10 01:35:01;;;;;;;0.60;0.60;;;;;;;;;;5073780;28;20863;-81
2022/09/10 01:37:30;;;;;;;0.60;0.60;;;;;;;;;;5073732;28;20208;-82
2022/09/10 01:40:00;;;;;;;1.40;1.30;;;;;;;;;;5074262;28;20224;-82
2022/09/10 01:42:28;;;;;;;1.30;0.60;;;;;;;;;;5074002;28;20297;-82
2022/09/10 01:44:57;;;;;;;0.60;0.60;;;;;;;;;;5073944;28;20200;-82
2022/09/10 01:47:50;;;;;;;0.93;0.93;;;;;;;;;;5073675;28;20200;-82
2022/09/10 01:50:24;;;;;;;2.30;0.93;;;;;;;;;;5074214;28;20221;-81
2022/09/10 01:53:14;;;;;;;1.45;0.70;;;;;;;;;;5073854;28;20206;-82
2022/09/10 01:55:49;;;;;;;0.98;0.70;;;;;;;;;;5074369;28;20560;-81
2022/09/10 01:58:23;;;;;;;1.33;1.23;;;;;;;;;;5073375;28;20196;-81
2022/09/10 02:01:00;;;;;;;0.70;0.70;;;;;;;;;;5073756;28;20220;-82
2022/09/10 02:03:28;;;;;;;1.35;1.25;;;;;;;;;;5073898;28;20213;-82
2022/09/10 02:05:57;;;;;;;0.60;0.60;;;;;;;;;;5074800;28;20748;-82
2022/09/10 02:08:29;;;;;;;0.60;0.60;;;;;;;;;;5074573;28;20293;-81
2022/09/10 02:10:59;;;;;;;0.75;0.75;;;;;;;;;;5074443;28;20209;-82
2022/09/10 02:13:28;;;;;;;1.67;1.00;;;;;;;;;;5075806;28;20223;-82
2022/09/10 02:15:58;;;;;;;0.60;0.60;;;;;;;;;;5075744;28;20295;-82
2022/09/10 02:18:26;;;;;;;0.85;0.82;;;;;;;;;;5073907;28;20291;-82
2022/09/10 02:20:55;;;;;;;0.77;0.60;;;;;;;;;;5073820;28;20224;-82
2022/09/10 02:23:27;;;;;;;0.80;0.70;;;;;;;;;;5074057;28;20665;-81
2022/09/10 02:25:54;;;;;;;0.60;0.60;;;;;;;;;;5074105;28;20213;-82
2022/09/10 02:28:22;;;;;;;0.75;0.70;;;;;;;;;;5073922;28;20227;-81
2022/09/10 02:30:49;;;;;;;1.13;1.00;;;;;;;;;;5073914;28;20201;-82
2022/09/10 02:33:18;;;;;;;1.30;0.90;;;;;;;;;;5073671;28;20207;-81
2022/09/10 02:35:46;;;;;;;1.33;0.90;;;;;;;;;;5073557;28;20676;-81
2022/09/10 02:38:15;;;;;;;0.95;0.75;;;;;;;;;;5074003;28;20287;-81
2022/09/10 02:40:43;;;;;;;0.93;0.93;;;;;;;;;;5073514;28;20220;-82
2022/09/10 02:43:10;;;;;;;1.00;1.00;;;;;;;;;;5073593;28;20568;-81
2022/09/10 02:45:37;;;;;;;2.03;0.90;;;;;;;;;;5073513;28;20207;-81
2022/09/10 02:48:05;;;;;;;1.15;0.80;;;;;;;;;;5072242;28;20197;-81
2022/09/10 02:50:35;;;;;;;0.68;0.68;;;;;;;;;;5072886;28;20217;-83
2022/09/10 02:53:02;;;;;;;8.38;2.00;;;;;;;;;;5073269;28;20199;-81
2022/09/10 02:55:30;;;;;;;1.13;1.00;;;;;;;;;;5073126;28;20736;-81
2022/09/10 02:57:58;;;;;;;1.55;0.98;;;;;;;;;;5073138;28;20236;-81
2022/09/10 03:00:25;;;;;;;1.15;1.00;;;;;;;;;;5072723;28;20705;-81
2022/09/10 03:02:55;;;;;;;1.20;0.93;;;;;;;;;;5072338;28;20227;-82
2022/09/10 03:05:22;;;;;;;0.85;0.85;;;;;;;;;;5072737;28;20201;-82
2022/09/10 03:07:51;;;;;;;0.85;0.85;;;;;;;;;;5072242;28;20287;-82
2022/09/10 03:10:19;;;;;;;0.93;0.90;;;;;;;;;;5072439;28;20788;-82
2022/09/10 03:12:46;;;;;;;1.35;0.90;;;;;;;;;;5072229;28;20208;-82
2022/09/10 03:15:14;;;;;;;0.98;0.88;;;;;;;;;;5072397;28;20251;-81
2022/09/10 03:17:42;;;;;;;2.67;0.77;;;;;;;;;;5071763;28;20211;-81
2022/09/10 03:20:10;;;;;;;0.75;0.65;;;;;;;;;;5072294;28;20225;-82
2022/09/10 03:22:37;;;;;;;2.45;0.88;;;;;;;;;;5072197;28;20742;-82
2022/09/10 03:25:08;;;;;;;0.90;0.90;;;;;;;;;;5071923;28;20288;-81
2022/09/10 03:27:35;;;;;;;2.40;1.10;;;;;;;;;;5072436;28;20221;-81
2022/09/10 03:30:03;;;;;;;0.90;0.90;;;;;;;;;;5072075;28;20304;-82
2022/09/10 03:32:31;;;;;;;0.80;0.80;;;;;;;;;;5071792;28;20213;-81
2022/09/10 03:34:59;;;;;;;3.22;0.90;;;;;;;;;;5072261;28;20201;-82
2022/09/10 03:37:27;;;;;;;0.80;0.80;;;;;;;;;;5071612;28;20205;-81
2022/09/10 03:39:54;;;;;;;1.13;1.00;;;;;;;;;;5071947;28;20229;-81
2022/09/10 03:42:23;;;;;;;3.88;2.63;;;;;;;;;;5071820;28;20719;-82
2022/09/10 03:44:51;;;;;;;1.20;1.00;;;;;;;;;;5073071;28;20201;-82
2022/09/10 03:47:18;;;;;;;1.15;0.90;;;;;;;;;;5075338;28;20243;-81
2022/09/10 03:49:46;;;;;;;1.20;1.17;;;;;;;;;;5075856;28;20320;-82
2022/09/10 03:52:13;;;;;;;1.48;0.80;;;;;;;;;;5075062;28;20712;-82
2022/09/10 03:54:41;;;;;;;1.85;0.70;;;;;;;;;;5075186;28;20292;-82
2022/09/10 03:57:08;;;;;;;0.60;0.60;;;;;;;;;;5075127;28;20216;-81
2022/09/10 03:59:40;;;;;;;1.27;1.20;;;;;;;;;;5075471;28;20599;-82
2022/09/10 04:02:08;;;;;;;0.95;0.95;;;;;;;;;;5075357;28;20225;-81
2022/09/10 04:04:36;;;;;;;1.65;1.10;;;;;;;;;;5075779;28;20201;-82
2022/09/10 04:07:04;;;;;;;0.82;0.82;;;;;;;;;;5075461;28;20575;-81
2022/09/10 04:09:32;;;;;;;2.15;1.00;;;;;;;;;;5075319;28;20213;-81
2022/09/10 04:12:00;;;;;;;0.80;0.70;;;;;;;;;;5075276;28;20257;-82
2022/09/10 04:14:28;;;;;;;1.00;1.00;;;;;;;;;;5075266;28;20290;-82
2022/09/10 04:16:57;;;;;;;0.70;0.70;;;;;;;;;;5074866;28;20706;-81
2022/09/10 04:19:26;;;;;;;0.90;0.90;;;;;;;;;;5074609;28;20220;-82
2022/09/10 04:21:53;;;;;;;1.65;1.55;;;;;;;;;;5074699;28;20217;-82
2022/09/10 04:24:21;;;;;;;0.80;0.80;;;;;;;;;;5074379;28;20293;-82
2022/09/10 04:26:48;;;;;;;0.93;0.93;;;;;;;;;;5074602;28;20716;-82
2022/09/10 04:29:16;;;;;;;1.20;1.02;;;;;;;;;;5074530;28;20224;-82
2022/09/10 04:31:45;;;;;;;0.90;0.90;;;;;;;;;;5075232;28;20211;-81
2022/09/10 04:34:14;;;;;;;1.60;1.50;;;;;;;;;;5074658;28;20205;-82
2022/09/10 04:36:42;;;;;;;1.15;1.10;;;;;;;;;;5074481;28;20233;-81
2022/09/10 04:39:09;;;;;;;1.33;1.23;;;;;;;;;;5074944;28;20221;-82
2022/09/10 04:41:37;;;;;;;2.60;1.55;;;;;;;;;;5074442;28;20211;-81
2022/09/10 04:44:05;;;;;;;1.17;1.05;;;;;;;;;;5074046;28;20287;-81
2022/09/10 04:46:32;;;;;;;0.90;0.90;;;;;;;;;;5074413;28;20201;-82
2022/09/10 04:49:00;;;;;;;3.45;1.20;;;;;;;;;;5074116;28;20225;-82
2022/09/10 04:51:29;;;;;;;0.80;0.80;;;;;;;;;;5074704;28;20676;-82
2022/09/10 04:53:58;;;;;;;1.05;1.00;;;;;;;;;;5074342;28;20224;-82
2022/09/10 04:56:25;;;;;;;1.33;1.23;;;;;;;;;;5073766;28;20201;-81
2022/09/10 04:58:53;;;;;;;1.52;1.30;;;;;;;;;;5074084;28;20221;-82
2022/09/10 05:01:20;;;;;;;1.52;1.42;;;;;;;;;;5073760;28;20304;-82
2022/09/10 05:03:48;;;;;;;2.80;1.20;;;;;;;;;;5073766;28;20217;-82
2022/09/10 05:06:15;;;;;;;2.28;1.23;;;;;;;;;;5073540;28;20205;-83
2022/09/10 05:08:44;;;;;;;1.48;1.20;;;;;;;;;;5073758;28;20224;-82
2022/09/10 05:11:12;;;;;;;1.10;1.05;;;;;;;;;;5074045;28;20213;-81
2022/09/10 05:13:40;;;;;;;1.17;1.17;;;;;;;;;;5073565;28;20197;-82
2022/09/10 05:16:08;;;;;;;1.23;1.00;;;;;;;;;;5074211;28;20317;-81
2022/09/10 05:18:35;;;;;;;1.23;1.00;;;;;;;;;;5073085;28;20324;-82
2022/09/10 05:21:04;;;;;;;1.30;1.20;;;;;;;;;;5073128;28;20291;-81
2022/09/10 05:23:31;;;;;;;0.95;0.95;;;;;;;;;;5073546;28;20228;-81
2022/09/10 05:26:00;;;;;;;1.45;1.35;;;;;;;;;;5073032;28;20208;-82
2022/09/10 05:28:28;;;;;;;0.98;0.98;;;;;;;;;;5072787;28;20201;-82
2022/09/10 05:30:55;;;;;;;1.08;1.00;;;;;;;;;;5073402;28;20200;-81
2022/09/10 05:33:23;;;;;;;1.08;1.00;;;;;;;;;;5073464;28;20233;-82
2022/09/10 05:35:51;;;;;;;1.83;1.25;;;;;;;;;;5072704;28;20288;-82
2022/09/10 05:38:18;;;;;;;1.73;1.40;;;;;;;;;;5072793;28;20201;-82
2022/09/10 05:40:47;;;;;;;1.67;1.58;;;;;;;;;;5073660;28;20283;-80
2022/09/10 05:43:15;;;;;;;1.98;1.70;;;;;;;;;;5073289;28;20274;-79
2022/09/10 05:45:43;;;;;;;1.77;1.25;;;;;;;;;;5073038;28;20208;-78
2022/09/10 05:48:10;;;;;;;1.10;1.10;;;;;;;;;;5072290;28;20201;-78
2022/09/10 05:50:38;;;;;;;1.52;1.10;;;;;;;;;;5072605;28;20227;-79
2022/09/10 05:53:05;;;;;;;1.38;1.00;;;;;;;;;;5073225;28;20254;-79
2022/09/10 05:55:33;;;;;;;1.25;1.20;;;;;;;;;;5072819;28;20276;-79
2022/09/10 05:58:01;;;;;;;1.70;1.60;;;;;;;;;;5072566;28;20197;-80
2022/09/10 06:00:30;;;;;;;1.50;1.40;;;;;;;;;;5073739;28;20221;-79
2022/09/10 06:02:58;;;;;;;1.38;1.20;;;;;;;;;;5072589;28;20278;-79
2022/09/10 06:05:25;;;;;;;2.00;1.27;;;;;;;;;;5072652;28;20740;-78
2022/09/10 06:07:53;;;;;;;1.55;1.08;;;;;;;;;;5072260;28;20252;-79
2022/09/10 06:10:20;;;;;;;1.10;1.10;;;;;;;;;;5072767;28;20227;-80
2022/09/10 06:12:50;;;;;;;2.17;1.27;;;;;;;;;;5072532;28;20205;-79
2022/09/10 06:15:19;;;;;;;1.63;1.30;;;;;;;;;;5072655;28;20650;-79
2022/09/10 06:17:48;;;;;;;1.65;1.48;;;;;;;;;;5072696;28;20240;-79
2022/09/10 06:20:16;;;;;;;2.53;1.75;;;;;;;;;;5072913;28;20312;-79
2022/09/10 06:22:43;;;;;;;1.77;1.30;;;;;;;;;;5072544;28;20221;-80
2022/09/10 06:25:11;;;;;;;2.33;1.92;;;;;;;;;;5072740;28;20211;-79
2022/09/10 06:27:39;;;;;;;1.50;1.40;;;;;;;;;;5072621;28;20235;-79
2022/09/10 06:30:08;;;;;;;1.80;1.70;;;;;;;;;;5072475;28;20227;-80
2022/09/10 06:32:36;;;;;;;2.20;1.90;;;;;;;;;;5072145;28;20201;-79
2022/09/10 06:35:06;;;;;;;1.40;1.30;;;;;;;;;;5064564;28;20209;-79
2022/09/10 06:37:33;;;;;;;1.85;1.40;;;;;;;;;;5048987;28;20216;-79
2022/09/10 06:40:01;;;;;;;1.50;1.40;;;;;;;;;;5052208;28;20240;-79
2022/09/10 06:42:30;;;;;;;1.27;1.17;;;;;;;;;;5052653;28;20197;-79
2022/09/10 06:44:59;;;;;;;1.85;1.75;;;;;;;;;;5052087;28;20275;-79
2022/09/10 06:47:26;;;;;;;1.00;1.00;;;;;;;;;;5052734;28;20244;-79
2022/09/10 06:49:54;;;;;;;1.45;1.35;;;;;;;;;;5052512;28;20217;-78
2022/09/10 06:52:23;;;;;;;2.92;1.00;;;;;;;;;;5052809;28;20197;-79
2022/09/10 06:54:51;;;;;;;1.73;1.40;;;;;;;;;;5052598;28;20200;-79
2022/09/10 06:57:19;;;;;;;1.98;1.77;;;;;;;;;;5072217;28;20216;-79
2022/09/10 06:59:46;;;;;;;1.23;1.23;;;;;;;;;;5071740;28;20228;-79
2022/09/10 07:02:14;;;;;;;1.48;1.38;;;;;;;;;;5072112;28;20292;-80
2022/09/10 07:04:41;;;;;;;0.95;0.95;;;;;;;;;;5071792;28;20315;-79
2022/09/10 07:07:09;;;;;;;1.52;1.42;;;;;;;;;;5071363;28;20200;-79
2022/09/10 07:09:37;;;;;;;1.55;1.45;;;;;;;;;;5072123;28;20227;-79
2022/09/10 07:12:05;;;;;;;2.28;1.30;;;;;;;;;;5071822;28;20762;-79
2022/09/10 07:14:33;;;;;;;0.90;0.90;;;;;;;;;;5072053;28;20199;-79
2022/09/10 07:17:01;;;;;;;1.13;1.00;;;;;;;;;;5071853;28;20294;-79
2022/09/10 07:19:30;;;;;;;1.40;1.30;;;;;;;;;;5071655;28;20947;-80
2022/09/10 07:21:58;;;;;;;1.10;1.10;;;;;;;;;;5076303;28;20209;-79
2022/09/10 07:24:25;;;;;;;1.33;1.23;;;;;;;;;;5075447;28;20231;-78
2022/09/10 07:26:56;;;;;;;1.20;0.90;;;;;;;;;;5075360;28;20209;-79
2022/09/10 07:29:24;;;;;;;1.23;1.10;;;;;;;;;;5075795;28;20216;-79
2022/09/10 07:31:51;;;;;;;0.90;0.90;;;;;;;;;;5075232;28;20258;-78
2022/09/10 07:34:19;;;;;;;0.90;0.90;;;;;;;;;;5075336;28;20208;-79
2022/09/10 07:36:46;;;;;;;1.17;1.13;;;;;;;;;;5074900;28;20205;-79
2022/09/10 07:39:14;;;;;;;1.02;1.02;;;;;;;;;;5075010;28;20727;-79
2022/09/10 07:41:41;;;;;;;1.65;1.55;;;;;;;;;;5075596;28;20201;-79
2022/09/10 07:44:10;;;;;;;2.67;1.27;;;;;;;;;;5075205;28;20225;-79
2022/09/10 07:46:38;;;;;;;1.00;1.00;;;;;;;;;;5075205;28;20248;-78
2022/09/10 07:49:05;;;;;;;1.35;1.25;;;;;;;;;;5075206;28;20610;-79
2022/09/10 07:51:35;;;;;;;1.95;1.52;;;;;;;;;;5075181;28;20205;-79
2022/09/10 07:54:04;;;;;;;1.52;1.27;;;;;;;;;;5075807;28;20197;-78
2022/09/10 07:56:34;;;;;;;1.08;1.08;;;;;;;;;;5076063;28;20300;-79
2022/09/10 07:59:01;;;;;;;1.23;1.23;;;;;;;;;;5075275;28;20217;-80
2022/09/10 08:01:30;;;;;;;1.35;1.25;;;;;;;;;;5075610;28;20208;-79
2022/09/10 08:03:59;;;;;;;1.63;1.20;;;;;;;;;;5075325;28;20258;-79
2022/09/10 08:06:26;;;;;;;1.30;1.20;;;;;;;;;;5075522;28;20672;-79
2022/09/10 08:08:54;;;;;;;3.78;1.55;;;;;;;;;;5075572;28;20258;-78
2022/09/10 08:11:22;;;;;;;0.93;0.93;;;;;;;;;;5075144;28;20209;-82
2022/09/10 08:13:52;;;;;;;1.05;1.05;;;;;;;;;;5075375;28;20211;-80
2022/09/10 08:16:23;;;;;;;1.33;1.10;;;;;;;;;;5074589;28;20228;-82
2022/09/10 08:18:52;;;;;;;1.75;1.27;;;;;;;;;;5075803;28;20221;-79
2022/09/10 08:21:20;;;;;;;1.92;1.00;;;;;;;;;;5075319;28;20295;-82
2022/09/10 08:23:50;;;;;;;1.30;1.20;;;;;;;;;;5074416;28;20259;-78
2022/09/10 08:26:20;;;;;;;1.23;1.23;;;;;;;;;;5074783;28;20254;-78
2022/09/10 08:28:48;;;;;;;1.02;1.02;;;;;;;;;;5074454;28;20294;-79
2022/09/10 08:31:16;;;;;;;1.30;1.20;;;;;;;;;;5073685;28;20224;-78
2022/09/10 08:33:49;;;;;;;1.00;1.00;;;;;;;;;;5074470;28;20254;-78
2022/09/10 08:36:20;;;;;;;0.85;0.85;;;;;;;;;;5074453;28;20240;-79
2022/09/10 08:38:50;;;;;;;0.80;0.80;;;;;;;;;;5074299;28;20216;-78
2022/09/10 08:41:31;;;;;;;2.42;1.20;;;;;;;;;;5074431;28;20208;-78
2022/09/10 08:44:02;;;;;;;1.00;1.00;;;;;;;;;;5060447;28;20205;-77
2022/09/10 08:46:34;;;;;;;0.85;0.85;;;;;;;;;;5053643;28;20258;-79
2022/09/10 08:49:09;;;;;;;1.20;1.10;;;;;;;;;;5053819;28;20702;-79
2022/09/10 08:51:44;;;;;;;1.13;1.02;;;;;;;;;;5054244;28;20568;-78
2022/09/10 08:54:16;;;;;;;0.90;0.90;;;;;;;;;;5052759;28;20198;-78
2022/09/10 08:56:43;;;;;;;1.00;1.00;;;;;;;;;;5054541;28;20676;-79
2022/09/10 08:59:21;;;;;;;1.20;1.20;;;;;;;;;;5053189;28;20231;-78
2022/09/10 09:01:53;;;;;;;1.88;1.77;;;;;;;;;;5053641;28;20205;-78
2022/09/10 09:04:37;;;;;;;1.50;0.95;;;;;;;;;;5053514;28;20284;-78
2022/09/10 09:07:14;;;;;;;3.08;0.93;;;;;;;;;;5053344;28;20217;-78
2022/09/10 09:09:42;;;;;;;2.45;1.40;;;;;;;;;;5053900;28;20224;-78
2022/09/10 09:12:24;;;;;;;1.60;1.08;;;;;;;;;;5051454;28;20197;-78
2022/09/10 09:15:02;;;;;;;1.38;1.10;;;;;;;;;;5053137;28;20213;-78
2022/09/10 09:17:43;;;;;;;1.70;1.60;;;;;;;;;;5053399;28;20209;-79
2022/09/10 09:20:17;;;;;;;1.55;1.45;;;;;;;;;;5053556;28;20218;-79
2022/09/10 09:22:52;;;;;;;1.23;1.20;;;;;;;;;;5050376;28;20585;-79
2022/09/10 09:25:27;;;;;;;1.55;1.30;;;;;;;;;;5041905;28;20235;-78
2022/09/10 09:27:56;;;;;;;1.20;1.02;;;;;;;;;;5073735;28;20235;-79
2022/09/10 09:30:26;;;;;;;1.98;1.13;;;;;;;;;;5073534;28;20326;-79
2022/09/10 09:33:10;;;;;;;1.08;1.08;;;;;;;;;;5073752;28;20204;-79
2022/09/10 09:35:45;;;;;;;1.92;1.55;;;;;;;;;;5073683;28;20220;-78
2022/09/10 09:38:22;;;;;;;1.30;1.20;;;;;;;;;;5073249;28;20199;-79
2022/09/10 09:40:53;;;;;;;1.30;1.20;;;;;;;;;;5074134;28;20200;-79
2022/09/10 09:43:32;;;;;;;1.42;1.25;;;;;;;;;;5072466;28;20290;-80
2022/09/10 09:46:00;;;;;;;2.05;1.83;;;;;;;;;;5073275;28;20660;-79
2022/09/10 09:48:38;;;;;;;1.15;1.15;;;;;;;;;;5073070;28;20209;-79
2022/09/10 09:51:10;;;;;;;1.33;1.23;;;;;;;;;;5073466;28;20582;-79
2022/09/10 09:53:39;;;;;;;1.52;0.93;;;;;;;;;;5073190;28;20209;-78
2022/09/10 09:56:14;;;;;;;1.10;1.10;;;;;;;;;;5073129;28;20205;-78
2022/09/10 09:58:48;;;;;;;1.27;1.17;;;;;;;;;;5072844;28;20221;-79
2022/09/10 10:01:22;;;;;;;1.10;1.00;;;;;;;;;;5073014;28;20254;-79
2022/09/10 10:03:57;;;;;;;1.08;1.00;;;;;;;;;;5072814;28;20201;-79
2022/09/10 10:06:27;;;;;;;1.50;1.00;;;;;;;;;;5072333;28;20773;-79
2022/09/10 10:09:00;;;;;;;1.20;1.10;;;;;;;;;;5072508;28;20312;-79
2022/09/10 10:11:47;;;;;;;1.30;1.30;;;;;;;;;;5072606;28;20252;-79
2022/09/10 10:14:40;;;;;;;1.63;1.52;;;;;;;;;;5072080;28;20293;-78
2022/09/10 10:17:34;;;;;;;1.25;1.10;;;;;;;;;;5072368;28;20201;-78
2022/09/10 10:20:07;;;;;;;1.27;0.80;;;;;;;;;;5071556;28;20220;-79
2022/09/10 10:22:39;;;;;;;0.70;0.70;;;;;;;;;;5071407;28;20205;-79
2022/09/10 10:26:09;;;;;;;0.75;0.75;;;;;;;;;;5071325;28;20661;-79
2022/09/10 10:28:51;;;;;;;1.48;1.00;;;;;;;;;;5058898;28;20220;-78
2022/09/10 10:31:58;;;;;;;1.38;1.02;;;;;;;;;;5070861;28;20258;-78
2022/09/10 10:34:46;;;;;;;3.05;1.25;;;;;;;;;;5009293;28;20218;-78
2022/09/10 10:37:36;;;;;;;1.13;0.95;;;;;;;;;;5008998;28;20731;-79
2022/09/10 10:40:18;;;;;;;0.93;0.93;;;;;;;;;;5057137;28;20224;-79
2022/09/10 10:42:50;;;;;;;0.82;0.80;;;;;;;;;;5072117;28;20339;-79
2022/09/10 10:45:37;;;;;;;1.50;1.17;;;;;;;;;;5071720;28;20594;-78
2022/09/10 10:48:12;;;;;;;1.15;1.05;;;;;;;;;;5071805;28;20210;-80
2022/09/10 10:50:53;;;;;;;1.20;1.10;;;;;;;;;;5072301;28;20224;-79
2022/09/10 10:54:01;;;;;;;1.70;1.60;;;;;;;;;;5072223;28;20201;-79
2022/09/10 10:56:36;;;;;;;0.90;0.90;;;;;;;;;;5075650;28;20209;-80
2022/09/10 10:59:27;;;;;;;1.10;1.10;;;;;;;;;;5076236;28;20227;-80
2022/09/10 11:01:58;;;;;;;1.65;1.10;;;;;;;;;;5054587;28;20212;-80
2022/09/10 11:04:32;;;;;;;1.00;0.90;;;;;;;;;;5035584;28;20206;-80
2022/09/10 11:07:05;;;;;;;1.10;0.90;;;;;;;;;;5054171;28;20700;-80
2022/09/10 11:09:39;;;;;;;1.13;1.10;;;;;;;;;;5055259;28;20249;-80
2022/09/10 11:12:13;;;;;;;1.55;1.35;;;;;;;;;;5055396;28;20204;-79
2022/09/10 11:14:47;;;;;;;0.88;0.85;;;;;;;;;;5055128;28;20292;-79
2022/09/10 11:17:18;;;;;;;1.27;1.17;;;;;;;;;;5054356;28;20201;-80
2022/09/10 11:19:51;;;;;;;0.88;0.88;;;;;;;;;;5055952;28;20213;-80
2022/09/10 11:22:21;;;;;;;1.15;1.08;;;;;;;;;;5056029;28;20544;-79
2022/09/10 11:24:54;;;;;;;1.13;0.80;;;;;;;;;;5056065;28;20562;-82
2022/09/10 11:27:27;;;;;;;2.42;1.38;;;;;;;;;;5075901;28;20232;-80
2022/09/10 11:30:02;;;;;;;2.20;1.75;;;;;;;;;;5076841;28;20223;-81
2022/09/10 11:32:34;;;;;;;2.00;1.20;;;;;;;;;;5075943;28;20754;-81
2022/09/10 11:35:11;;;;;;;1.88;1.45;;;;;;;;;;5075991;28;20274;-80
2022/09/10 11:38:00;;;;;;;1.20;1.10;;;;;;;;;;5075487;28;20200;-80
2022/09/10 11:40:34;;;;;;;0.80;0.80;;;;;;;;;;5062226;28;20217;-80
2022/09/10 11:43:07;;;;;;;1.33;1.20;;;;;;;;;;5055179;28;20575;-80
2022/09/10 11:45:45;;;;;;;0.90;0.90;;;;;;;;;;5054955;28;20202;-80
2022/09/10 11:48:20;;;;;;;0.90;0.90;;;;;;;;;;5053699;28;20289;-80
2022/09/10 11:50:53;;;;;;;0.98;0.80;;;;;;;;;;5055125;28;20202;-80
2022/09/10 11:53:25;;;;;;;0.70;0.70;;;;;;;;;;5055419;28;20287;-80
2022/09/10 11:56:19;;;;;;;1.13;1.02;;;;;;;;;;5064517;28;20305;-80
2022/09/10 11:58:59;;;;;;;0.68;0.60;;;;;;;;;;5075199;28;20223;-80
2022/09/10 12:01:45;;;;;;;1.08;0.85;;;;;;;;;;5075222;28;20203;-80
2022/09/10 12:04:34;;;;;;;0.52;0.52;;;;;;;;;;5075684;28;20201;-79
2022/09/10 12:07:08;;;;;;;0.60;0.60;;;;;;;;;;5074591;28;20225;-79
2022/09/10 12:09:41;;;;;;;0.80;0.80;;;;;;;;;;5075280;28;20228;-80
2022/09/10 12:12:15;;;;;;;0.80;0.80;;;;;;;;;;5075493;28;20287;-80
2022/09/10 12:14:44;;;;;;;1.00;0.80;;;;;;;;;;5075261;28;20239;-81
2022/09/10 12:17:16;;;;;;;0.70;0.70;;;;;;;;;;5074961;28;20199;-80
2022/09/10 12:19:47;;;;;;;0.80;0.80;;;;;;;;;;5075040;28;20233;-80
2022/09/10 12:22:22;;;;;;;0.80;0.80;;;;;;;;;;5075322;28;20201;-80
2022/09/10 12:24:55;;;;;;;0.52;0.52;;;;;;;;;;5075434;28;20215;-80
2022/09/10 12:27:26;;;;;;;0.70;0.70;;;;;;;;;;5075701;28;20274;-80
2022/09/10 12:29:55;;;;;;;0.80;0.80;;;;;;;;;;5076248;28;20225;-80
2022/09/10 12:32:32;;;;;;;0.85;0.77;;;;;;;;;;5075638;28;20200;-79
2022/09/10 12:35:46;;;;;;;1.00;0.73;;;;;;;;;;5075517;28;20275;-81
2022/09/10 12:38:55;;;;;;;1.20;0.80;;;;;;;;;;5039908;28;20681;-79
2022/09/10 12:42:24;;;;;;;0.60;0.60;;;;;;;;;;5075188;28;20292;-79
2022/09/10 12:44:52;;;;;;;0.63;0.63;;;;;;;;;;5013048;28;20206;-80
2022/09/10 12:47:39;;;;;;;0.73;0.73;;;;;;;;;;5065543;28;20232;-80
2022/09/10 12:50:31;;;;;;;1.75;1.15;;;;;;;;;;5075036;28;20246;-80
2022/09/10 12:53:33;;;;;;;2.25;0.98;;;;;;;;;;5074734;28;20615;-79
2022/09/10 12:56:04;;;;;;;1.00;0.75;;;;;;;;;;5074865;28;20250;-80
2022/09/10 12:58:54;;;;;;;0.68;0.68;;;;;;;;;;5075038;28;20579;-80
2022/09/10 13:01:39;;;;;;;0.57;0.57;;;;;;;;;;5074570;28;20196;-83
2022/09/10 13:04:23;;;;;;;0.65;0.65;;;;;;;;;;5075386;28;20204;-80
2022/09/10 13:06:53;;;;;;;0.60;0.60;;;;;;;;;;5074193;28;20669;-81
2022/09/10 13:09:22;;;;;;;0.80;0.80;;;;;;;;;;5074711;28;20229;-80
2022/09/10 13:11:54;;;;;;;0.88;0.70;;;;;;;;;;5074728;28;20296;-81
2022/09/10 13:14:26;;;;;;;0.45;0.45;;;;;;;;;;5074404;28;20598;-80
2022/09/10 13:16:54;;;;;;;0.40;0.40;;;;;;;;;;5074061;28;20197;-81
2022/09/10 13:19:54;;;;;;;0.60;0.60;;;;;;;;;;5074221;28;20720;-80
2022/09/10 13:22:41;;;;;;;0.65;0.52;;;;;;;;;;5073630;28;20673;-80
2022/09/10 13:25:27;;;;;;;0.60;0.60;;;;;;;;;;5073663;28;20685;-80
2022/09/10 13:27:55;;;;;;;0.60;0.60;;;;;;;;;;5074038;28;20231;-80
2022/09/10 13:30:24;;;;;;;0.30;0.30;;;;;;;;;;5073855;28;20220;-80
2022/09/10 13:32:54;;;;;;;0.55;0.55;;;;;;;;;;5073674;28;20201;-80
2022/09/10 13:35:46;;;;;;;0.43;0.43;;;;;;;;;;5073737;28;20205;-79
2022/09/10 13:38:40;;;;;;;0.60;0.60;;;;;;;;;;5073699;28;20604;-80
2022/09/10 13:41:58;;;;;;;0.43;0.43;;;;;;;;;;5073574;28;20201;-80
2022/09/10 13:44:49;;;;;;;0.60;0.60;;;;;;;;;;5030515;28;20694;-81
2022/09/10 13:47:19;;;;;;;0.50;0.50;;;;;;;;;;5073225;28;20217;-80
2022/09/10 13:49:54;;;;;;;0.60;0.60;;;;;;;;;;5073696;28;20217;-80
2022/09/10 13:52:28;;;;;;;0.65;0.65;;;;;;;;;;5073829;28;20235;-80
2022/09/10 13:54:57;;;;;;;0.70;0.70;;;;;;;;;;5073021;28;20196;-80
2022/09/10 13:57:28;;;;;;;0.90;0.70;;;;;;;;;;5072871;28;20207;-80
2022/09/10 14:00:06;;;;;;;0.50;0.50;;;;;;;;;;5073620;28;20743;-81
2022/09/10 14:02:46;;;;;;;0.60;0.60;;;;;;;;;;5073393;28;20203;-80
2022/09/10 14:05:27;;;;;;;0.60;0.60;;;;;;;;;;5074058;28;20201;-79
2022/09/10 14:07:57;;;;;;;0.50;0.50;;;;;;;;;;5072941;28;20212;-80
2022/09/10 14:10:26;;;;;;;0.32;0.32;;;;;;;;;;5073272;28;20224;-80
2022/09/10 14:12:54;;;;;;;0.50;0.50;;;;;;;;;;5072753;28;20287;-80
2022/09/10 14:15:25;;;;;;;0.50;0.50;;;;;;;;;;5073235;28;20211;-80
2022/09/10 14:17:56;;;;;;;0.40;0.40;;;;;;;;;;5073466;28;20279;-80
2022/09/10 14:20:26;;;;;;;0.70;0.70;;;;;;;;;;5072852;28;20228;-80
2022/09/10 14:23:01;;;;;;;1.45;0.60;;;;;;;;;;5073272;28;20208;-80
2022/09/10 14:25:32;;;;;;;0.50;0.50;;;;;;;;;;5072666;28;20262;-79
2022/09/10 14:28:21;;;;;;;0.85;0.52;;;;;;;;;;5073082;28;20221;-80
2022/09/10 14:30:50;;;;;;;0.50;0.50;;;;;;;;;;5072663;28;20185;-79
2022/09/10 14:33:24;;;;;;;1.02;0.60;;;;;;;;;;5073090;28;20197;-80
2022/09/10 14:35:52;;;;;;;0.55;0.55;;;;;;;;;;5072509;28;20212;-81
2022/09/10 14:38:27;;;;;;;0.50;0.50;;;;;;;;;;5072162;28;20193;-80
2022/09/10 14:40:59;;;;;;;0.50;0.50;;;;;;;;;;5072795;28;20287;-80
2022/09/10 14:43:32;;;;;;;1.17;1.17;;;;;;;;;;5072567;28;20288;-80
2022/09/10 14:46:00;;;;;;;1.02;0.77;;;;;;;;;;5072467;28;20204;-80
2022/09/10 14:48:32;;;;;;;0.60;0.60;;;;;;;;;;5072057;28;20612;-80
2022/09/10 14:51:17;;;;;;;0.32;0.32;;;;;;;;;;5072053;28;20196;-80
2022/09/10 14:53:49;;;;;;;0.38;0.38;;;;;;;;;;5071989;28;20690;-80
2022/09/10 14:56:24;;;;;;;0.35;0.35;;;;;;;;;;5072136;28;20215;-80
2022/09/10 14:58:58;;;;;;;1.10;1.05;;;;;;;;;;5072029;28;20280;-80
2022/09/10 15:01:26;;;;;;;0.63;0.63;;;;;;;;;;5072028;28;20196;-80
2022/09/10 15:03:53;;;;;;;0.60;0.60;;;;;;;;;;5071546;28;20200;-80
2022/09/10 15:06:21;;;;;;;0.55;0.40;;;;;;;;;;5072226;28;20208;-80
2022/09/10 15:08:51;;;;;;;0.65;0.40;;;;;;;;;;5071790;28;20232;-80
2022/09/10 15:11:22;;;;;;;0.90;0.90;;;;;;;;;;5072214;28;20632;-80
2022/09/10 15:13:51;;;;;;;0.75;0.75;;;;;;;;;;5068239;28;20612;-80
2022/09/10 15:16:19;;;;;;;0.75;0.75;;;;;;;;;;5051896;28;20264;-81
2022/09/10 15:18:46;;;;;;;0.50;0.50;;;;;;;;;;5051685;28;20304;-80